Terminal Aerodrome Forecast
Issued by NWS

Current Version | Previous Version | Graphics & Text | Print | Product List | Glossary On
Versions: 1 2 3 4 5 6 7 8 9 10 11 12 13 14
034
FTUS41 KPBZ 251720
TAFHLG
TAF
KHLG 251720Z 2518/2618 07004KT P6SM SKC
     FM261500 17007KT P6SM VCSH BKN100=

USA.gov is the U.S. government's official web portal to all federal, state and local government web resources and services.